createdAt,value
2022-09-07T00:01:08.742Z,13.95
2022-09-07T00:03:36.887Z,13.92
2022-09-07T00:06:07.896Z,13.89
2022-09-07T00:08:36.906Z,13.86
2022-09-07T00:11:07.692Z,13.83
2022-09-07T00:13:38.355Z,13.80
2022-09-07T00:16:08.873Z,13.77
2022-09-07T00:18:37.236Z,13.75
2022-09-07T00:21:08.714Z,13.72
2022-09-07T00:23:38.714Z,13.69
2022-09-07T00:26:12.821Z,13.66
2022-09-07T00:28:41.924Z,13.64
2022-09-07T00:31:12.774Z,13.61
2022-09-07T00:33:42.113Z,13.58
2022-09-07T00:36:10.184Z,13.55
2022-09-07T00:38:38.273Z,13.52
2022-09-07T00:41:06.442Z,13.48
2022-09-07T00:43:47.122Z,13.45
2022-09-07T00:46:24.491Z,13.43
2022-09-07T00:49:10.606Z,13.40
2022-09-07T00:51:47.608Z,13.36
2022-09-07T00:54:20.877Z,13.34
2022-09-07T00:56:50.894Z,13.31
2022-09-07T00:59:24.106Z,13.28
2022-09-07T01:01:52.476Z,13.26
2022-09-07T01:04:22.294Z,13.22
2022-09-07T01:06:50.286Z,13.20
2022-09-07T01:09:23.098Z,13.17
2022-09-07T01:11:52.655Z,13.14
2022-09-07T01:14:24.102Z,13.11
2022-09-07T01:17:12.312Z,13.08
2022-09-07T01:19:49.436Z,13.04
2022-09-07T01:22:20.110Z,13.01
2022-09-07T01:25:07.585Z,12.97
2022-09-07T01:27:55.763Z,12.95
2022-09-07T01:30:24.762Z,12.92
2022-09-07T01:32:58.496Z,12.89
2022-09-07T01:35:53.874Z,12.86
2022-09-07T01:38:30.517Z,12.83
2022-09-07T01:41:10.291Z,12.81
2022-09-07T01:43:51.338Z,12.78
2022-09-07T01:46:27.021Z,12.75
2022-09-07T01:49:01.017Z,12.73
2022-09-07T01:51:33.666Z,12.71
2022-09-07T01:54:14.202Z,12.69
2022-09-07T01:56:46.779Z,12.67
2022-09-07T01:59:21.409Z,12.65
2022-09-07T02:01:59.102Z,13.21
2022-09-07T02:04:36.405Z,15.54
2022-09-07T02:07:15.915Z,17.01
2022-09-07T02:09:52.259Z,16.53
2022-09-07T02:12:44.143Z,15.89
2022-09-07T02:15:21.087Z,15.36
2022-09-07T02:17:54.496Z,15.01
2022-09-07T02:20:27.040Z,14.73
2022-09-07T02:23:00.213Z,14.48
2022-09-07T02:25:37.895Z,14.25
2022-09-07T02:28:12.399Z,14.06
2022-09-07T02:30:40.312Z,13.90
2022-09-07T02:33:08.694Z,13.74
2022-09-07T02:35:36.822Z,13.60
2022-09-07T02:38:06.791Z,13.47
2022-09-07T02:40:35.165Z,13.35
2022-09-07T02:43:06.749Z,13.23
2022-09-07T02:46:09.920Z,13.11
2022-09-07T02:48:58.154Z,12.99
2022-09-07T02:51:39.027Z,12.88
2022-09-07T02:54:19.645Z,12.78
2022-09-07T02:57:16.527Z,12.69
2022-09-07T03:00:07.556Z,12.59
2022-09-07T03:03:03.800Z,12.50
2022-09-07T03:05:43.053Z,12.43
2022-09-07T03:08:12.861Z,12.36
2022-09-07T03:10:42.648Z,12.76
2022-09-07T03:13:23.839Z,14.93
2022-09-07T03:15:55.753Z,16.81
2022-09-07T03:18:26.187Z,16.38
2022-09-07T03:20:54.943Z,15.69
2022-09-07T03:23:23.622Z,15.17
2022-09-07T03:25:51.336Z,14.78
2022-09-07T03:28:19.093Z,14.45
2022-09-07T03:30:49.822Z,14.17
2022-09-07T03:33:17.834Z,13.92
2022-09-07T03:35:56.722Z,13.69
2022-09-07T03:38:24.724Z,13.48
2022-09-07T03:41:04.268Z,13.30
2022-09-07T03:43:33.327Z,13.13
2022-09-07T03:46:05.141Z,12.98
2022-09-07T03:48:34.957Z,12.83
2022-09-07T03:51:11.109Z,12.70
2022-09-07T03:53:41.012Z,12.57
2022-09-07T03:56:16.354Z,12.46
2022-09-07T03:58:45.556Z,12.35
2022-09-07T04:01:17.165Z,12.26
2022-09-07T04:03:46.126Z,12.17
2022-09-07T04:06:14.894Z,12.09
2022-09-07T04:08:43.730Z,12.51
2022-09-07T04:11:17.500Z,14.79
2022-09-07T04:13:46.367Z,16.72
2022-09-07T04:16:19.532Z,16.31
2022-09-07T04:18:50.346Z,15.54
2022-09-07T04:21:18.700Z,14.95
2022-09-07T04:23:46.976Z,14.52
2022-09-07T04:26:20.083Z,14.16
2022-09-07T04:28:48.027Z,13.86
2022-09-07T04:31:17.641Z,13.60
2022-09-07T04:33:46.826Z,13.37
2022-09-07T04:36:16.462Z,13.17
2022-09-07T04:38:44.805Z,12.98
2022-09-07T04:41:18.138Z,12.81
2022-09-07T04:43:46.706Z,12.66
2022-09-07T04:46:21.910Z,12.54
2022-09-07T04:48:54.207Z,12.45
2022-09-07T04:51:23.274Z,12.37
2022-09-07T04:53:54.157Z,12.31
2022-09-07T04:56:23.272Z,12.26
2022-09-07T04:58:51.423Z,12.22
2022-09-07T05:01:21.720Z,12.21
2022-09-07T05:03:50.211Z,12.28
2022-09-07T05:06:20.599Z,12.34
2022-09-07T05:08:53.688Z,12.39
2022-09-07T05:11:27.926Z,12.54
2022-09-07T05:13:59.339Z,12.71
2022-09-07T05:16:28.095Z,12.83
2022-09-07T05:18:59.390Z,12.89
2022-09-07T05:21:30.326Z,12.97
2022-09-07T05:23:59.877Z,13.08
2022-09-07T05:26:30.121Z,13.11
2022-09-07T05:31:50.419Z,13.08
2022-09-07T05:34:33.736Z,13.07
2022-09-07T05:37:02.401Z,13.06
2022-09-07T05:39:32.056Z,13.04
2022-09-07T05:41:59.966Z,13.03
2022-09-07T05:47:11.651Z,13.08
2022-09-07T05:49:40.099Z,13.09
2022-09-07T05:52:08.169Z,13.11
2022-09-07T05:54:36.025Z,13.14
2022-09-07T05:57:04.429Z,13.17
2022-09-07T05:59:32.258Z,13.20
2022-09-07T06:02:00.401Z,13.24
2022-09-07T06:04:28.262Z,13.30
2022-09-07T06:07:21.686Z,13.36
2022-09-07T06:12:32.054Z,13.49
2022-09-07T06:15:01.628Z,13.59
2022-09-07T06:17:29.995Z,13.79
2022-09-07T06:19:57.843Z,13.98
2022-09-07T06:22:30.106Z,14.06
2022-09-07T06:24:59.003Z,14.12
2022-09-07T06:27:27.516Z,14.17
2022-09-07T06:29:55.763Z,14.20
2022-09-07T06:35:12.906Z,14.30
2022-09-07T06:37:41.425Z,14.36
2022-09-07T06:40:12.114Z,14.42
2022-09-07T06:42:40.391Z,14.49
2022-09-07T06:45:11.428Z,14.69
2022-09-07T06:47:39.994Z,15.07
2022-09-07T06:50:08.775Z,15.57
2022-09-07T06:55:28.049Z,16.93
2022-09-07T06:57:55.924Z,17.63
2022-09-07T07:00:23.792Z,18.29
2022-09-07T07:02:51.787Z,18.91
2022-09-07T07:05:19.678Z,19.39
2022-09-07T07:07:47.463Z,19.80
2022-09-07T07:10:15.638Z,20.20
2022-09-07T07:15:10.981Z,21.01
2022-09-07T07:17:38.735Z,21.32
2022-09-07T07:20:07.562Z,21.52
2022-09-07T07:22:50.720Z,21.35
2022-09-07T07:25:19.454Z,20.98
2022-09-07T07:27:48.693Z,20.63
2022-09-07T07:30:18.304Z,20.33
2022-09-07T07:32:47.012Z,20.05
2022-09-07T07:35:15.346Z,19.79
2022-09-07T07:37:43.577Z,19.56
2022-09-07T07:42:46.168Z,19.14
2022-09-07T07:48:02.855Z,18.69
2022-09-07T07:50:31.789Z,18.53
2022-09-07T07:55:48.944Z,18.25
2022-09-07T07:58:17.079Z,18.18
2022-09-07T08:01:00.441Z,18.15
2022-09-07T08:03:28.842Z,18.12
2022-09-07T08:05:57.025Z,18.11
2022-09-07T08:08:24.998Z,18.07
2022-09-07T08:10:53.100Z,18.04
2022-09-07T08:13:21.647Z,17.99
2022-09-07T08:15:49.573Z,17.98
2022-09-07T08:18:18.188Z,17.97
2022-09-07T08:20:45.949Z,17.96
2022-09-07T08:23:14.766Z,17.93
2022-09-07T08:25:53.396Z,17.92
2022-09-07T08:28:23.499Z,17.91
2022-09-07T08:30:51.312Z,17.91
2022-09-07T08:33:19.254Z,17.92
2022-09-07T08:36:00.467Z,17.92
2022-09-07T08:38:33.258Z,17.92
2022-09-07T08:41:02.586Z,17.94
2022-09-07T08:43:50.190Z,17.98
2022-09-07T08:46:51.598Z,18.03
2022-09-07T08:49:30.263Z,18.09
2022-09-07T08:52:05.463Z,18.13
2022-09-07T08:54:33.303Z,18.20
2022-09-07T09:00:05.099Z,18.38
2022-09-07T09:02:42.018Z,18.46
2022-09-07T09:05:33.101Z,18.55
2022-09-07T09:08:10.917Z,18.62
2022-09-07T09:10:38.682Z,18.69
2022-09-07T09:13:18.802Z,18.75
2022-09-07T09:15:57.019Z,18.80
2022-09-07T09:18:24.717Z,18.85
2022-09-07T09:20:55.656Z,18.91
2022-09-07T09:23:31.300Z,18.97
2022-09-07T09:26:04.553Z,19.05
2022-09-07T09:28:32.625Z,19.13
2022-09-07T09:31:00.723Z,19.21
2022-09-07T09:33:29.147Z,19.28
2022-09-07T09:36:00.188Z,19.36
2022-09-07T09:38:43.620Z,19.44
2022-09-07T09:41:15.935Z,19.53
2022-09-07T09:43:48.946Z,19.62
2022-09-07T09:46:28.487Z,19.68
2022-09-07T09:48:59.699Z,19.76
2022-09-07T09:54:44.837Z,19.88
2022-09-07T09:57:17.383Z,19.93
2022-09-07T10:00:05.539Z,19.97
2022-09-07T10:05:38.589Z,20.08
2022-09-07T10:08:16.944Z,20.14
2022-09-07T10:11:15.548Z,20.20
2022-09-07T10:13:56.015Z,20.24
2022-09-07T10:16:41.576Z,20.28
2022-09-07T10:19:23.637Z,20.33
2022-09-07T10:21:57.420Z,20.38
2022-09-07T10:24:27.817Z,20.41
2022-09-07T10:26:55.558Z,20.48
2022-09-07T10:29:36.463Z,20.53
2022-09-07T10:32:33.133Z,20.64
2022-09-07T10:35:27.837Z,20.74
2022-09-07T10:38:18.722Z,20.82
2022-09-07T10:41:07.368Z,20.89
2022-09-07T10:43:47.321Z,20.93
2022-09-07T10:49:38.248Z,21.04
2022-09-07T10:52:09.190Z,21.10
2022-09-07T10:55:07.765Z,21.16
2022-09-07T10:57:49.120Z,21.24
2022-09-07T11:00:20.325Z,21.31
2022-09-07T11:03:27.097Z,21.37
2022-09-07T11:06:33.299Z,21.45
2022-09-07T11:09:16.903Z,21.51
2022-09-07T11:12:03.017Z,21.57
2022-09-07T11:14:43.962Z,21.63
2022-09-07T11:17:18.912Z,21.66
2022-09-07T11:19:54.817Z,21.70
2022-09-07T11:22:28.139Z,21.72
2022-09-07T11:25:36.870Z,21.75
2022-09-07T11:28:12.914Z,21.79
2022-09-07T11:30:46.750Z,21.83
2022-09-07T11:33:36.473Z,21.87
2022-09-07T11:36:16.337Z,21.94
2022-09-07T11:38:59.782Z,22.00
2022-09-07T11:41:30.844Z,22.04
2022-09-07T11:44:27.807Z,22.08
2022-09-07T11:47:03.544Z,22.12
2022-09-07T11:49:31.335Z,22.17
2022-09-07T11:52:05.642Z,22.20
2022-09-07T11:54:36.466Z,22.23
2022-09-07T11:57:42.549Z,22.24
2022-09-07T12:00:19.265Z,22.26
2022-09-07T12:02:59.786Z,22.28
2022-09-07T12:06:10.438Z,22.30
2022-09-07T12:08:38.171Z,22.32
2022-09-07T12:11:24.563Z,22.35
2022-09-07T12:13:55.017Z,22.38
2022-09-07T12:16:28.940Z,22.40
2022-09-07T12:19:02.830Z,22.42
2022-09-07T12:21:36.470Z,22.44
2022-09-07T12:24:05.030Z,22.47
2022-09-07T12:26:32.734Z,22.49
2022-09-07T12:29:00.436Z,22.52
2022-09-07T12:31:57.566Z,22.53
2022-09-07T12:34:32.267Z,22.54
2022-09-07T12:37:12.399Z,22.57
2022-09-07T12:39:43.923Z,22.59
2022-09-07T12:45:28.796Z,22.63
2022-09-07T12:47:59.068Z,22.67
2022-09-07T12:50:59.930Z,22.70
2022-09-07T12:53:40.691Z,22.74
2022-09-07T12:56:18.361Z,22.76
2022-09-07T12:59:02.320Z,22.79
2022-09-07T13:01:48.835Z,22.80
2022-09-07T13:04:54.885Z,22.84
2022-09-07T13:08:07.229Z,22.87
2022-09-07T13:10:39.659Z,22.91
2022-09-07T13:16:17.781Z,22.95
2022-09-07T13:18:47.046Z,22.96
2022-09-07T13:21:17.521Z,22.97
2022-09-07T13:27:25.073Z,23.01
2022-09-07T13:29:52.755Z,23.03
2022-09-07T13:35:25.519Z,23.06
2022-09-07T13:38:00.736Z,23.04
2022-09-07T13:40:31.980Z,23.03
2022-09-07T13:43:01.915Z,23.03
2022-09-07T13:45:29.566Z,23.04
2022-09-07T13:48:10.268Z,23.05
2022-09-07T13:50:50.548Z,23.07
2022-09-07T13:53:33.345Z,23.08
2022-09-07T13:56:21.660Z,23.08
2022-09-07T13:58:52.554Z,23.08
2022-09-07T14:01:23.604Z,23.10
2022-09-07T14:03:57.090Z,23.12
2022-09-07T14:06:33.722Z,23.14
2022-09-07T14:09:07.077Z,23.17
2022-09-07T14:11:49.729Z,23.19
2022-09-07T14:14:29.588Z,23.21
2022-09-07T14:17:04.719Z,23.23
2022-09-07T14:19:39.872Z,23.22
2022-09-07T14:22:28.867Z,23.23
2022-09-07T14:24:59.452Z,23.23
2022-09-07T14:27:42.124Z,23.22
2022-09-07T14:30:28.683Z,23.22
2022-09-07T14:33:06.272Z,23.24
2022-09-07T14:35:37.740Z,23.24
2022-09-07T14:41:18.888Z,23.24
2022-09-07T14:43:55.727Z,23.23
2022-09-07T14:46:27.240Z,23.22
2022-09-07T14:49:00.655Z,23.20
2022-09-07T14:51:36.128Z,23.18
2022-09-07T14:54:07.417Z,23.16
2022-09-07T14:56:38.203Z,23.14
2022-09-07T14:59:30.943Z,23.14
2022-09-07T15:02:28.362Z,23.15
2022-09-07T15:05:14.622Z,23.15
2022-09-07T15:07:48.857Z,23.15
2022-09-07T15:10:23.668Z,23.14
2022-09-07T15:12:55.079Z,23.14
2022-09-07T15:15:26.928Z,23.15
2022-09-07T15:18:01.856Z,23.14
2022-09-07T15:20:38.534Z,23.15
2022-09-07T15:23:12.247Z,23.14
2022-09-07T15:25:45.317Z,23.13
2022-09-07T15:34:11.610Z,23.12
2022-09-07T15:36:42.668Z,23.09
2022-09-07T15:39:22.569Z,23.07
2022-09-07T15:41:51.625Z,23.04
2022-09-07T15:44:24.980Z,23.01
2022-09-07T15:49:49.161Z,22.93
2022-09-07T15:52:18.317Z,22.88
2022-09-07T15:54:46.800Z,22.85
2022-09-07T16:00:04.405Z,22.75
2022-09-07T16:05:20.197Z,22.66
2022-09-07T16:10:35.976Z,22.58
2022-09-07T16:13:16.169Z,22.54
2022-09-07T16:15:46.686Z,22.50
2022-09-07T16:18:17.090Z,22.47
2022-09-07T16:20:45.953Z,22.43
2022-09-07T16:23:16.163Z,22.39
2022-09-07T16:25:59.602Z,22.35
2022-09-07T16:28:28.363Z,22.30
2022-09-07T16:30:57.418Z,22.26
2022-09-07T16:33:33.135Z,22.22
2022-09-07T16:36:11.586Z,22.18
2022-09-07T16:38:44.255Z,22.14
2022-09-07T16:41:26.571Z,22.09
2022-09-07T16:43:54.812Z,22.05
2022-09-07T16:46:26.801Z,22.01
2022-09-07T16:48:55.162Z,21.97
2022-09-07T16:51:24.408Z,21.91
2022-09-07T16:53:54.944Z,21.87
2022-09-07T16:56:24.600Z,21.82
2022-09-07T16:58:56.257Z,21.77
2022-09-07T17:01:27.028Z,21.72
2022-09-07T17:03:55.358Z,21.67
2022-09-07T17:06:25.909Z,21.62
2022-09-07T17:08:54.698Z,21.56
2022-09-07T17:11:25.391Z,21.52
2022-09-07T17:13:54.146Z,21.46
2022-09-07T17:16:24.592Z,21.42
2022-09-07T17:21:41.920Z,21.32
2022-09-07T17:24:11.171Z,21.26
2022-09-07T17:26:42.335Z,21.20
2022-09-07T17:29:13.111Z,21.16
2022-09-07T17:34:30.671Z,21.04
2022-09-07T17:37:00.573Z,20.98
2022-09-07T17:39:29.389Z,20.93
2022-09-07T17:41:57.792Z,20.87
2022-09-07T17:44:25.717Z,20.83
2022-09-07T17:46:53.484Z,20.78
2022-09-07T17:49:21.355Z,20.73
2022-09-07T17:51:51.284Z,20.70
2022-09-07T17:54:19.165Z,20.64
2022-09-07T17:56:47.019Z,20.61
2022-09-07T18:02:02.998Z,20.53
2022-09-07T18:04:30.945Z,20.51
2022-09-07T18:06:58.795Z,20.48
2022-09-07T18:09:26.536Z,20.45
2022-09-07T18:11:54.431Z,20.42
2022-09-07T18:14:22.310Z,20.39
2022-09-07T18:16:51.037Z,20.35
2022-09-07T18:19:19.144Z,20.33
2022-09-07T18:21:48.089Z,20.29
2022-09-07T18:24:19.921Z,20.25
2022-09-07T18:26:51.184Z,20.22
2022-09-07T18:29:32.911Z,20.18
2022-09-07T18:32:07.366Z,20.13
2022-09-07T18:34:38.280Z,20.10
2022-09-07T18:37:07.114Z,20.06
2022-09-07T18:39:35.733Z,20.02
2022-09-07T18:42:04.111Z,19.98
2022-09-07T18:47:27.950Z,19.90
2022-09-07T18:49:57.650Z,19.85
2022-09-07T18:55:13.867Z,19.77
2022-09-07T18:57:42.253Z,19.74
2022-09-07T19:00:12.088Z,19.70
2022-09-07T19:02:39.904Z,19.66
2022-09-07T19:07:56.569Z,19.57
2022-09-07T19:10:24.386Z,19.54
2022-09-07T19:12:52.116Z,19.50
2022-09-07T19:15:20.719Z,19.46
2022-09-07T19:17:48.542Z,19.42
2022-09-07T19:20:17.559Z,19.38
2022-09-07T19:22:45.572Z,19.34
2022-09-07T19:25:13.347Z,19.30
2022-09-07T19:27:41.113Z,19.25
2022-09-07T19:30:09.622Z,19.21
2022-09-07T19:32:37.366Z,19.17
2022-09-07T19:35:05.445Z,19.12
2022-09-07T19:37:33.576Z,19.09
2022-09-07T19:40:02.053Z,19.04
2022-09-07T19:42:30.067Z,18.99
2022-09-07T19:44:57.977Z,18.94
2022-09-07T19:47:25.771Z,18.89
2022-09-07T19:49:53.604Z,18.84
2022-09-07T19:52:21.403Z,18.81
2022-09-07T19:54:49.365Z,18.76
2022-09-07T19:57:17.222Z,18.73
2022-09-07T19:59:45.720Z,18.69
2022-09-07T20:02:13.689Z,18.65
2022-09-07T20:04:41.477Z,18.61
2022-09-07T20:07:09.210Z,18.58
2022-09-07T20:09:37.338Z,18.54
2022-09-07T20:12:07.994Z,18.51
2022-09-07T20:14:36.031Z,18.47
2022-09-07T20:17:04.105Z,18.45
2022-09-07T20:19:31.865Z,18.41
2022-09-07T20:21:59.701Z,18.37
2022-09-07T20:24:27.844Z,18.34
2022-09-07T20:26:55.517Z,18.31
2022-09-07T20:29:27.913Z,18.28
2022-09-07T20:31:58.738Z,18.24
2022-09-07T20:34:27.799Z,18.21
2022-09-07T20:36:56.807Z,18.18
2022-09-07T20:39:25.512Z,18.15
2022-09-07T20:41:53.260Z,18.12
2022-09-07T20:44:21.004Z,18.08
2022-09-07T20:46:48.955Z,18.05
2022-09-07T20:49:17.016Z,18.02
2022-09-07T20:51:44.761Z,17.99
2022-09-07T20:54:12.589Z,17.95
2022-09-07T20:56:40.381Z,17.92
2022-09-07T20:59:08.568Z,17.88
2022-09-07T21:01:36.702Z,17.85
2022-09-07T21:04:06.301Z,17.80
2022-09-07T21:06:34.176Z,17.78
2022-09-07T21:09:02.172Z,17.75
2022-09-07T21:11:33.236Z,17.72
2022-09-07T21:14:06.288Z,17.69
2022-09-07T21:16:37.383Z,17.66
2022-09-07T21:19:07.305Z,17.64
2022-09-07T21:21:39.104Z,17.61
2022-09-07T21:24:19.194Z,17.57
2022-09-07T21:26:48.339Z,17.54
2022-09-07T21:29:22.976Z,17.51
2022-09-07T21:31:53.444Z,17.48
2022-09-07T21:34:22.200Z,17.46
2022-09-07T21:36:50.617Z,17.43
2022-09-07T21:39:19.312Z,17.42
2022-09-07T21:41:47.144Z,17.39
2022-09-07T21:44:16.195Z,17.37
2022-09-07T21:46:44.612Z,17.36
2022-09-07T21:49:12.424Z,17.35
2022-09-07T21:51:40.471Z,17.33
2022-09-07T21:54:08.818Z,17.31
2022-09-07T21:56:36.674Z,17.29
2022-09-07T21:59:05.225Z,17.26
2022-09-07T22:01:33.244Z,17.24
2022-09-07T22:04:03.935Z,17.21
2022-09-07T22:06:32.630Z,17.19
2022-09-07T22:09:01.251Z,17.16
2022-09-07T22:11:30.410Z,17.14
2022-09-07T22:14:03.515Z,17.12
2022-09-07T22:16:33.043Z,17.10
2022-09-07T22:19:01.365Z,17.07
2022-09-07T22:21:30.355Z,17.05
2022-09-07T22:24:00.889Z,17.03
2022-09-07T22:26:31.272Z,17.00
2022-09-07T22:29:00.128Z,16.98
2022-09-07T22:31:31.929Z,16.97
2022-09-07T22:34:01.954Z,16.95
2022-09-07T22:36:35.232Z,16.93
2022-09-07T22:39:05.598Z,16.91
2022-09-07T22:41:35.620Z,16.90
2022-09-07T22:44:04.226Z,16.87
2022-09-07T22:46:37.334Z,16.86
2022-09-07T22:49:06.895Z,16.85
2022-09-07T22:51:35.055Z,16.83
2022-09-07T22:54:03.474Z,16.81
2022-09-07T22:56:33.353Z,16.79
2022-09-07T22:59:04.309Z,16.78
2022-09-07T23:01:32.516Z,16.77
2022-09-07T23:04:00.720Z,16.76
2022-09-07T23:06:32.715Z,16.74
2022-09-07T23:09:04.078Z,16.73
2022-09-07T23:11:31.861Z,16.71
2022-09-07T23:14:02.811Z,16.70
2022-09-07T23:16:31.177Z,16.68
2022-09-07T23:19:00.318Z,16.67
2022-09-07T23:21:28.750Z,16.66
2022-09-07T23:23:59.796Z,16.64
2022-09-07T23:26:30.220Z,16.62
2022-09-07T23:29:00.383Z,16.60
2022-09-07T23:31:29.749Z,16.58
2022-09-07T23:33:57.979Z,16.57
2022-09-07T23:36:26.393Z,16.55
2022-09-07T23:38:56.280Z,16.54
2022-09-07T23:41:25.129Z,16.52
2022-09-07T23:43:54.425Z,16.51
2022-09-07T23:46:22.256Z,16.50
2022-09-07T23:48:50.544Z,16.49
2022-09-07T23:51:23.393Z,16.49
2022-09-07T23:53:52.700Z,16.48
2022-09-07T23:56:21.141Z,16.48
2022-09-07T23:58:49.205Z,16.48
